Time;durP1;ratioP1;P1;durP2;ratioP2;P2;SDS_P1;SDS_P2;PMS_P1;PMS_P2;Temp;Humidity;BMP_temperature;BMP_pressure;BME280_temperature;BME280_humidity;BME280_pressure;Samples;Min_cycle;Max_cycle;Signal;HPM_P1;HPM_P2
2021/05/28 00:00:58;;;;;;;0.88;0.82;;;8.90;92.70;;;;;;4996917;28;20023;-74
2021/05/28 00:03:24;;;;;;;1.25;1.02;;;8.80;92.60;;;;;;4995457;28;20034;-74
2021/05/28 00:05:49;;;;;;;1.20;1.13;;;8.90;92.60;;;;;;4995577;28;20023;-74
2021/05/28 00:08:15;;;;;;;1.45;1.05;;;8.80;92.60;;;;;;4995553;28;20080;-74
2021/05/28 00:10:40;;;;;;;2.28;1.02;;;8.80;92.60;;;;;;4995364;28;20018;-73
2021/05/28 00:13:06;;;;;;;0.80;0.80;;;8.80;92.60;;;;;;5006120;28;20433;-74
2021/05/28 00:15:33;;;;;;;1.73;0.93;;;8.80;92.60;;;;;;4996749;28;20463;-74
2021/05/28 00:17:59;;;;;;;1.35;0.90;;;8.80;92.60;;;;;;4995255;28;20022;-73
2021/05/28 00:20:24;;;;;;;1.05;0.95;;;8.80;92.90;;;;;;4995909;28;20049;-74
2021/05/28 00:22:50;;;;;;;2.40;1.00;;;8.80;92.60;;;;;;4995291;28;20041;-73
2021/05/28 00:25:15;;;;;;;0.75;0.75;;;8.70;92.60;;;;;;4994916;28;20022;-73
2021/05/28 00:27:45;;;;;;;0.75;0.75;;;8.70;92.90;;;;;;4995307;28;20387;-73
2021/05/28 00:30:11;;;;;;;0.80;0.80;;;8.70;92.60;;;;;;5000472;28;20088;-73
2021/05/28 00:32:37;;;;;;;0.80;0.80;;;8.80;92.60;;;;;;5014683;28;20057;-73
2021/05/28 00:35:03;;;;;;;2.03;1.40;;;8.80;92.60;;;;;;5014654;28;20058;-73
2021/05/28 00:37:29;;;;;;;1.17;0.95;;;8.80;92.50;;;;;;5014586;28;20041;-73
2021/05/28 00:39:54;;;;;;;0.95;0.95;;;8.70;92.60;;;;;;5014330;28;20029;-74
2021/05/28 00:42:20;;;;;;;1.15;0.85;;;8.70;92.60;;;;;;5014600;28;20030;-74
2021/05/28 00:44:46;;;;;;;1.33;1.00;;;8.70;92.60;;;;;;5014550;28;20470;-73
2021/05/28 00:47:11;;;;;;;1.27;1.17;;;8.60;92.60;;;;;;5014415;28;20470;-74
2021/05/28 00:49:37;;;;;;;0.98;0.88;;;8.60;92.70;;;;;;5014468;28;20037;-73
2021/05/28 00:52:03;;;;;;;0.75;0.75;;;8.60;92.60;;;;;;5014319;28;20021;-74
2021/05/28 00:54:29;;;;;;;1.17;0.70;;;8.60;92.60;;;;;;5014083;28;20018;-73
2021/05/28 00:56:55;;;;;;;0.70;0.70;;;8.50;92.60;;;;;;5014115;28;20037;-74
2021/05/28 00:59:21;;;;;;;0.60;0.60;;;8.50;92.60;;;;;;5014245;28;20040;-74
2021/05/28 01:01:47;;;;;;;0.95;0.80;;;8.50;92.60;;;;;;5014156;28;20030;-73
2021/05/28 01:04:13;;;;;;;0.80;0.80;;;8.50;92.60;;;;;;5014112;28;20022;-73
2021/05/28 01:06:39;;;;;;;0.70;0.70;;;8.50;92.70;;;;;;5014025;28;20029;-73
2021/05/28 01:09:06;;;;;;;0.82;0.65;;;8.40;92.60;;;;;;5010148;28;20033;-73
2021/05/28 01:11:32;;;;;;;0.52;0.52;;;8.40;92.60;;;;;;4994484;28;20101;-74
2021/05/28 01:13:59;;;;;;;0.50;0.50;;;8.40;92.60;;;;;;4994310;28;20053;-73
2021/05/28 01:16:25;;;;;;;0.88;0.63;;;8.40;92.60;;;;;;4999797;28;20037;-73
2021/05/28 01:18:51;;;;;;;0.75;0.75;;;8.50;92.60;;;;;;5013363;28;20026;-73
2021/05/28 01:21:17;;;;;;;0.85;0.85;;;8.40;92.60;;;;;;4997422;28;20027;-73
2021/05/28 01:23:42;;;;;;;0.75;0.70;;;8.50;92.60;;;;;;4994915;28;20532;-73
2021/05/28 01:26:08;;;;;;;0.55;0.55;;;8.50;92.60;;;;;;5008702;28;20041;-73
2021/05/28 01:28:34;;;;;;;0.40;0.40;;;8.40;92.50;;;;;;5013671;28;20018;-73
2021/05/28 01:30:59;;;;;;;0.82;0.65;;;8.50;92.50;;;;;;5013797;28;20064;-73
2021/05/28 01:33:26;;;;;;;0.57;0.57;;;8.50;92.50;;;;;;5013006;28;20018;-73
2021/05/28 01:35:53;;;;;;;0.65;0.50;;;8.60;92.50;;;;;;4994788;28;20425;-73
2021/05/28 01:38:19;;;;;;;0.40;0.40;;;8.60;92.40;;;;;;4993829;28;20379;-73
2021/05/28 01:40:44;;;;;;;0.47;0.47;;;8.70;92.40;;;;;;5010018;28;20033;-73
2021/05/28 01:43:10;;;;;;;0.75;0.65;;;8.70;92.30;;;;;;4995000;28;20130;-73
2021/05/28 01:45:35;;;;;;;0.82;0.70;;;8.80;92.30;;;;;;5002992;28;20025;-73
2021/05/28 01:48:04;;;;;;;0.73;0.73;;;8.80;92.20;;;;;;4993942;28;20101;-73
2021/05/28 01:50:30;;;;;;;0.43;0.43;;;8.90;92.20;;;;;;4976695;28;20033;-74
2021/05/28 01:52:55;;;;;;;0.82;0.82;;;8.90;92.20;;;;;;5006950;28;20034;-73
2021/05/28 01:55:21;;;;;;;1.10;0.90;;;8.90;92.20;;;;;;5013179;28;20430;-74
2021/05/28 01:57:46;;;;;;;0.80;0.80;;;8.90;92.20;;;;;;5000312;28;20055;-73
2021/05/28 02:00:15;;;;;;;1.17;0.70;;;8.90;92.20;;;;;;4993842;28;20092;-73
2021/05/28 02:02:40;;;;;;;0.50;0.50;;;8.90;92.20;;;;;;4993815;28;20031;-73
2021/05/28 02:05:08;;;;;;;1.13;0.82;;;8.90;92.20;;;;;;4993712;28;20048;-73
2021/05/28 02:07:34;;;;;;;0.80;0.80;;;8.80;92.20;;;;;;4988054;28;20390;-73
2021/05/28 02:10:00;;;;;;;0.82;0.80;;;8.80;92.50;;;;;;5012716;28;20109;-73
2021/05/28 02:12:25;;;;;;;0.70;0.70;;;8.70;92.30;;;;;;4976369;28;20061;-73
2021/05/28 02:14:55;;;;;;;0.45;0.45;;;8.70;92.30;;;;;;4993699;28;20030;-73
2021/05/28 02:17:21;;;;;;;1.00;0.68;;;8.70;92.40;;;;;;5002971;28;20555;-73
2021/05/28 02:19:46;;;;;;;0.57;0.57;;;8.60;92.40;;;;;;5013420;28;20109;-73
2021/05/28 02:22:13;;;;;;;0.43;0.43;;;8.60;92.40;;;;;;4999879;28;20030;-72
2021/05/28 02:24:38;;;;;;;1.05;0.60;;;8.60;92.50;;;;;;4993683;28;20014;-73
2021/05/28 02:27:04;;;;;;;0.70;0.60;;;8.50;92.40;;;;;;4998423;28;20513;-73
2021/05/28 02:29:30;;;;;;;0.52;0.52;;;8.50;92.50;;;;;;5013240;28;20038;-73
2021/05/28 02:31:56;;;;;;;1.15;0.82;;;8.50;92.40;;;;;;5013227;28;20352;-73
2021/05/28 02:34:21;;;;;;;0.90;0.60;;;8.50;92.40;;;;;;5016369;28;20058;-73
2021/05/28 02:36:47;;;;;;;0.47;0.47;;;8.50;92.40;;;;;;5011637;28;20061;-73
2021/05/28 02:39:13;;;;;;;0.50;0.50;;;8.50;92.40;;;;;;4997432;28;20034;-73
2021/05/28 02:41:38;;;;;;;0.40;0.40;;;8.60;92.40;;;;;;5006109;28;20064;-73
2021/05/28 02:44:04;;;;;;;0.68;0.68;;;8.60;92.30;;;;;;5015158;28;20029;-73
2021/05/28 02:46:33;;;;;;;0.43;0.43;;;8.60;92.40;;;;;;5016540;28;20054;-73
2021/05/28 02:48:59;;;;;;;0.60;0.60;;;8.50;92.30;;;;;;5016766;28;20092;-73
2021/05/28 02:51:24;;;;;;;0.60;0.60;;;8.50;92.40;;;;;;5014418;28;20470;-73
2021/05/28 02:53:50;;;;;;;0.82;0.77;;;8.50;92.40;;;;;;5007013;28;20034;-73
2021/05/28 02:56:15;;;;;;;0.82;0.63;;;8.50;92.30;;;;;;5001457;28;20029;-73
2021/05/28 02:58:41;;;;;;;0.50;0.50;;;8.60;92.30;;;;;;5015814;28;20096;-73
2021/05/28 03:01:06;;;;;;;0.43;0.43;;;8.60;92.30;;;;;;5016582;28;20101;-73
2021/05/28 03:03:32;;;;;;;0.38;0.35;;;8.70;92.20;;;;;;5016546;28;20022;-73
2021/05/28 03:05:58;;;;;;;0.50;0.50;;;8.70;92.20;;;;;;4998802;28;20052;-73
2021/05/28 03:08:26;;;;;;;0.45;0.40;;;8.70;92.10;;;;;;4996902;28;20033;-73
2021/05/28 03:10:51;;;;;;;0.98;0.70;;;8.80;92.10;;;;;;5012318;28;20036;-73
2021/05/28 03:13:17;;;;;;;0.55;0.55;;;8.80;92.10;;;;;;5014567;28;20101;-73
2021/05/28 03:15:42;;;;;;;0.93;0.93;;;8.80;92.00;;;;;;5016082;28;20025;-73
2021/05/28 03:18:15;;;;;;;0.40;0.40;;;8.80;92.00;;;;;;5016259;28;20033;-73
2021/05/28 03:20:46;;;;;;;0.43;0.43;;;8.80;91.90;;;;;;5015471;28;20021;-73
2021/05/28 03:23:11;;;;;;;0.40;0.40;;;8.80;92.00;;;;;;5015884;28;20030;-73
2021/05/28 03:25:38;;;;;;;0.50;0.50;;;8.80;92.10;;;;;;5015970;28;20026;-73
2021/05/28 03:28:04;;;;;;;0.38;0.38;;;8.80;92.10;;;;;;5000491;28;20064;-73
2021/05/28 03:30:29;;;;;;;1.08;0.98;;;8.80;92.10;;;;;;4996487;28;20022;-73
2021/05/28 03:32:55;;;;;;;0.52;0.52;;;8.80;92.10;;;;;;4995966;28;20026;-73
2021/05/28 03:35:20;;;;;;;0.50;0.50;;;8.90;92.00;;;;;;4996334;28;20018;-73
2021/05/28 03:37:46;;;;;;;0.52;0.52;;;9.00;92.00;;;;;;4995962;28;20426;-73
2021/05/28 03:40:12;;;;;;;0.47;0.47;;;9.00;91.90;;;;;;4996227;28;20042;-73
2021/05/28 03:42:38;;;;;;;0.40;0.40;;;9.00;91.80;;;;;;5006390;28;20026;-73
2021/05/28 03:45:05;;;;;;;0.68;0.68;;;8.90;91.90;;;;;;5014505;28;20053;-73
2021/05/28 03:47:31;;;;;;;0.45;0.45;;;8.90;92.00;;;;;;4997480;28;20026;-73
2021/05/28 03:49:57;;;;;;;0.43;0.43;;;8.90;91.90;;;;;;5015227;28;20026;-73
2021/05/28 03:52:22;;;;;;;0.70;0.70;;;8.90;91.90;;;;;;5014961;28;20025;-73
2021/05/28 03:54:48;;;;;;;0.75;0.60;;;8.90;92.00;;;;;;4997675;28;20114;-73
2021/05/28 03:57:14;;;;;;;0.50;0.50;;;9.00;92.00;;;;;;4995650;28;20045;-72
2021/05/28 03:59:39;;;;;;;0.47;0.47;;;9.00;91.90;;;;;;4997181;28;20061;-73
2021/05/28 04:02:05;;;;;;;0.20;0.20;;;9.00;91.90;;;;;;4995337;28;20034;-73
2021/05/28 04:04:32;;;;;;;0.60;0.60;;;9.10;91.80;;;;;;4995681;28;20513;-73
2021/05/28 04:06:58;;;;;;;0.50;0.50;;;9.10;91.80;;;;;;4995742;28;20031;-73
2021/05/28 04:09:23;;;;;;;0.50;0.50;;;9.10;91.80;;;;;;4995819;28;20034;-72
2021/05/28 04:11:49;;;;;;;0.93;0.93;;;9.00;91.80;;;;;;4995612;28;20026;-73
2021/05/28 04:14:14;;;;;;;0.70;0.68;;;9.00;91.90;;;;;;4996816;28;20478;-72
2021/05/28 04:16:40;;;;;;;0.50;0.47;;;9.10;91.90;;;;;;4994919;28;20034;-73
2021/05/28 04:19:06;;;;;;;1.08;0.98;;;9.10;91.80;;;;;;4995434;28;20379;-73
2021/05/28 04:21:32;;;;;;;0.65;0.60;;;9.10;91.80;;;;;;4995418;28;20022;-73
2021/05/28 04:23:57;;;;;;;0.40;0.40;;;9.20;91.80;;;;;;4995271;28;20027;-73
2021/05/28 04:26:23;;;;;;;0.90;0.52;;;9.20;91.80;;;;;;4995543;28;20018;-72
2021/05/28 04:28:48;;;;;;;1.05;0.88;;;9.20;91.80;;;;;;5006620;28;20019;-73
2021/05/28 04:31:14;;;;;;;0.60;0.60;;;9.10;91.80;;;;;;4994901;28;20030;-73
2021/05/28 04:33:39;;;;;;;0.82;0.73;;;9.10;91.90;;;;;;4995186;28;20061;-73
2021/05/28 04:36:05;;;;;;;0.60;0.60;;;9.10;91.90;;;;;;4995125;28;20121;-73
2021/05/28 04:38:31;;;;;;;0.60;0.60;;;9.00;91.90;;;;;;4995079;28;20033;-73
2021/05/28 04:40:56;;;;;;;0.80;0.50;;;8.90;92.10;;;;;;4995167;28;20030;-73
2021/05/28 04:43:22;;;;;;;0.65;0.63;;;8.90;92.20;;;;;;4998240;28;20562;-73
2021/05/28 04:45:47;;;;;;;0.77;0.60;;;9.00;92.10;;;;;;5014269;28;20033;-72
2021/05/28 04:48:13;;;;;;;0.75;0.75;;;9.00;92.10;;;;;;5011649;28;20030;-72
2021/05/28 04:50:38;;;;;;;1.23;0.80;;;9.10;92.10;;;;;;4977207;28;20022;-72
2021/05/28 04:53:05;;;;;;;0.70;0.70;;;9.20;92.10;;;;;;4994789;28;20042;-73
2021/05/28 04:55:32;;;;;;;0.90;0.80;;;9.30;92.00;;;;;;4994486;28;20420;-73
2021/05/28 04:57:58;;;;;;;0.88;0.60;;;9.30;91.90;;;;;;5012979;28;20104;-73
2021/05/28 05:00:25;;;;;;;1.27;0.88;;;9.20;91.90;;;;;;5012127;28;20065;-73
2021/05/28 05:02:51;;;;;;;0.65;0.60;;;9.00;92.00;;;;;;5014312;28;20056;-72
2021/05/28 05:05:17;;;;;;;0.45;0.45;;;9.10;92.20;;;;;;5003083;28;20046;-73
2021/05/28 05:07:43;;;;;;;1.45;0.95;;;9.10;92.20;;;;;;4995528;28;20022;-72
2021/05/28 05:10:10;;;;;;;0.70;0.70;;;9.10;92.10;;;;;;5011016;28;20029;-72
2021/05/28 05:12:37;;;;;;;0.50;0.50;;;9.10;92.10;;;;;;5013229;28;20072;-72
2021/05/28 05:15:02;;;;;;;0.70;0.70;;;9.20;92.10;;;;;;5013426;28;20042;-73
2021/05/28 05:17:28;;;;;;;1.20;1.10;;;9.10;92.00;;;;;;5012220;28;20034;-72
2021/05/28 05:19:53;;;;;;;0.70;0.60;;;9.00;92.10;;;;;;4996391;28;20426;-72
2021/05/28 05:22:19;;;;;;;0.65;0.65;;;8.90;92.20;;;;;;5013912;28;20026;-72
2021/05/28 05:24:45;;;;;;;0.57;0.57;;;8.90;92.30;;;;;;4994470;28;20065;-71
2021/05/28 05:27:10;;;;;;;0.60;0.60;;;9.00;92.30;;;;;;4994108;28;20072;-73
2021/05/28 05:29:36;;;;;;;0.82;0.70;;;9.00;92.20;;;;;;5002857;28;20018;-73
2021/05/28 05:32:02;;;;;;;0.60;0.60;;;9.10;92.20;;;;;;5013831;28;20476;-72
2021/05/28 05:34:28;;;;;;;0.50;0.50;;;9.10;92.10;;;;;;5013826;28;20106;-73
2021/05/28 05:36:53;;;;;;;0.57;0.57;;;9.20;92.10;;;;;;4993884;28;20124;-73
2021/05/28 05:39:21;;;;;;;0.50;0.50;;;9.20;92.00;;;;;;4996513;28;20562;-73
2021/05/28 05:41:47;;;;;;;0.57;0.57;;;9.20;92.10;;;;;;5006259;28;20109;-73
2021/05/28 05:44:12;;;;;;;0.60;0.60;;;9.30;92.10;;;;;;4993567;28;20110;-74
2021/05/28 05:46:39;;;;;;;0.70;0.70;;;9.30;91.90;;;;;;4993836;28;20545;-72
2021/05/28 05:49:05;;;;;;;0.52;0.43;;;9.30;91.90;;;;;;4994073;28;20043;-72
2021/05/28 05:51:30;;;;;;;0.40;0.40;;;9.30;92.10;;;;;;4994924;28;20085;-72
2021/05/28 05:53:56;;;;;;;0.57;0.57;;;9.40;92.10;;;;;;5013512;28;20018;-72
2021/05/28 05:56:21;;;;;;;1.13;0.80;;;9.50;92.10;;;;;;5013446;28;20034;-72
2021/05/28 05:58:47;;;;;;;0.50;0.50;;;9.50;91.90;;;;;;5011202;28;20403;-72
2021/05/28 06:01:12;;;;;;;0.82;0.80;;;9.60;91.90;;;;;;5013348;28;20022;-72
2021/05/28 06:03:38;;;;;;;0.70;0.70;;;9.70;91.80;;;;;;5013552;28;20506;-72
2021/05/28 06:06:03;;;;;;;0.70;0.70;;;9.80;91.80;;;;;;5013286;28;20486;-72
2021/05/28 06:08:29;;;;;;;0.50;0.50;;;9.90;91.80;;;;;;5012391;28;20033;-69
2021/05/28 06:10:54;;;;;;;0.40;0.40;;;10.10;91.70;;;;;;5008457;28;20049;-72
2021/05/28 06:13:20;;;;;;;0.80;0.80;;;10.20;91.60;;;;;;5000113;28;20058;-73
2021/05/28 06:15:45;;;;;;;1.08;0.75;;;10.30;91.60;;;;;;5000229;28;20109;-73
2021/05/28 06:18:11;;;;;;;0.57;0.57;;;10.30;91.50;;;;;;5000163;28;20097;-72
2021/05/28 06:20:37;;;;;;;0.80;0.80;;;10.30;91.50;;;;;;5006750;28;20022;-72
2021/05/28 06:23:02;;;;;;;0.63;0.63;;;10.20;91.50;;;;;;5009144;28;20440;-72
2021/05/28 06:25:28;;;;;;;0.50;0.50;;;10.10;91.70;;;;;;5013436;28;20021;-73
2021/05/28 06:27:54;;;;;;;0.75;0.75;;;10.10;91.70;;;;;;5016516;28;20029;-73
2021/05/28 06:30:20;;;;;;;0.63;0.63;;;10.10;91.80;;;;;;5017006;28;20421;-72
2021/05/28 06:32:46;;;;;;;0.68;0.68;;;10.20;91.80;;;;;;5010510;28;20018;-73
2021/05/28 06:35:11;;;;;;;0.52;0.52;;;10.40;91.70;;;;;;5015726;28;20032;-72
2021/05/28 06:37:37;;;;;;;0.43;0.43;;;10.60;91.70;;;;;;5013813;28;20038;-72
2021/05/28 06:40:05;;;;;;;0.50;0.50;;;10.80;91.60;;;;;;5010004;28;20032;-73
2021/05/28 06:42:30;;;;;;;0.50;0.43;;;11.10;91.50;;;;;;4997346;28;20540;-72
2021/05/28 06:44:56;;;;;;;1.33;0.65;;;11.30;91.30;;;;;;4997029;28;20103;-73
2021/05/28 06:47:22;;;;;;;1.05;0.93;;;11.50;91.20;;;;;;4996791;28;20046;-72
2021/05/28 06:49:48;;;;;;;0.60;0.60;;;11.70;91.20;;;;;;4997061;28;20015;-73
2021/05/28 06:52:13;;;;;;;0.63;0.63;;;11.80;91.10;;;;;;4988188;28;20030;-73
2021/05/28 06:54:39;;;;;;;0.40;0.40;;;11.90;91.10;;;;;;4979305;28;20034;-73
2021/05/28 06:57:04;;;;;;;0.85;0.85;;;12.00;91.10;;;;;;5008019;28;20124;-73
2021/05/28 06:59:30;;;;;;;0.40;0.40;;;12.20;91.00;;;;;;4997180;28;20031;-72
2021/05/28 07:01:55;;;;;;;0.40;0.40;;;12.30;91.00;;;;;;5003001;28;20502;-72
2021/05/28 07:04:22;;;;;;;0.55;0.55;;;12.30;91.10;;;;;;5013782;28;20493;-73
2021/05/28 07:06:47;;;;;;;0.60;0.60;;;12.20;91.20;;;;;;4999391;28;20105;-73
2021/05/28 07:09:13;;;;;;;0.68;0.68;;;12.20;91.30;;;;;;4978993;28;20026;-72
2021/05/28 07:11:38;;;;;;;0.75;0.75;;;12.20;91.40;;;;;;5011827;28;20533;-73
2021/05/28 07:14:04;;;;;;;0.65;0.60;;;12.10;91.40;;;;;;4999715;28;20018;-72
2021/05/28 07:16:30;;;;;;;0.70;0.63;;;12.10;91.50;;;;;;5008760;28;20129;-73
2021/05/28 07:18:56;;;;;;;0.50;0.40;;;12.10;91.50;;;;;;5007991;28;20032;-73
2021/05/28 07:21:25;;;;;;;0.98;0.90;;;12.00;91.50;;;;;;5011524;28;20065;-72
2021/05/28 07:23:51;;;;;;;;;;;11.90;91.70;;;;;;4999895;28;20077;-73
2021/05/28 07:26:17;;;;;;;1.33;1.20;;;11.70;91.80;;;;;;5005542;28;19913;-72
2021/05/28 07:28:42;;;;;;;0.60;0.52;;;11.60;91.90;;;;;;5013133;28;20074;-73
2021/05/28 07:31:08;;;;;;;0.82;0.82;;;11.50;92.10;;;;;;5003951;28;20049;-73
2021/05/28 07:33:34;;;;;;;1.70;1.05;;;11.50;92.10;;;;;;4996282;28;20106;-72
2021/05/28 07:35:59;;;;;;;0.68;0.68;;;11.50;92.10;;;;;;4996169;28;20030;-73
2021/05/28 07:38:25;;;;;;;0.60;0.60;;;11.60;92.10;;;;;;4997262;28;20383;-72
2021/05/28 07:40:51;;;;;;;0.63;0.63;;;11.70;92.00;;;;;;5012114;28;20159;-72
2021/05/28 07:43:16;;;;;;;1.02;0.52;;;11.80;92.00;;;;;;5035502;28;20367;-72
2021/05/28 07:45:42;;;;;;;0.28;0.28;;;11.90;91.90;;;;;;5035443;28;20025;-72
2021/05/28 07:48:08;;;;;;;0.57;0.57;;;12.00;91.80;;;;;;5035237;28;20103;-72
2021/05/28 07:50:46;;;;;;;0.50;0.50;;;12.10;91.80;;;;;;5035283;28;20033;-72
2021/05/28 07:53:16;;;;;;;0.88;0.80;;;12.20;91.80;;;;;;5035377;28;20025;-71
2021/05/28 07:55:42;;;;;;;0.90;0.80;;;12.10;91.80;;;;;;5034793;28;20029;-72
2021/05/28 07:58:08;;;;;;;1.77;1.00;;;12.20;91.90;;;;;;5035160;28;20429;-72
2021/05/28 08:00:34;;;;;;;0.68;0.60;;;12.30;91.90;;;;;;5035064;28;20019;-72
2021/05/28 08:03:00;;;;;;;0.63;0.63;;;12.30;91.80;;;;;;5035143;28;20056;-72
2021/05/28 08:05:25;;;;;;;0.82;0.82;;;12.30;91.80;;;;;;5031714;28;20026;-72
2021/05/28 08:07:51;;;;;;;0.80;0.80;;;12.40;91.80;;;;;;5014067;28;20553;-72
2021/05/28 08:10:16;;;;;;;0.65;0.65;;;12.40;91.90;;;;;;5014795;28;20057;-72
2021/05/28 08:12:42;;;;;;;0.75;0.55;;;12.40;91.90;;;;;;5015083;28;20021;-72
2021/05/28 08:15:08;;;;;;;1.25;0.80;;;12.50;91.80;;;;;;5015071;28;20026;-72
2021/05/28 08:17:33;;;;;;;0.70;0.70;;;12.60;91.80;;;;;;5015110;28;20446;-72
2021/05/28 08:19:59;;;;;;;0.60;0.52;;;12.70;91.80;;;;;;5015035;28;20513;-72
2021/05/28 08:22:25;;;;;;;0.60;0.60;;;12.80;91.80;;;;;;5015216;28;20061;-72
2021/05/28 08:24:50;;;;;;;0.50;0.50;;;12.90;91.70;;;;;;5014431;28;20030;-72
2021/05/28 08:27:17;;;;;;;1.10;1.00;;;13.00;91.70;;;;;;4997293;28;20037;-72
2021/05/28 08:29:43;;;;;;;0.60;0.60;;;13.10;91.70;;;;;;5014822;28;20022;-72
2021/05/28 08:32:09;;;;;;;0.77;0.70;;;13.10;91.70;;;;;;5014072;28;20025;-72
2021/05/28 08:34:34;;;;;;;0.73;0.63;;;13.20;91.70;;;;;;5014792;28;20386;-72
2021/05/28 08:37:00;;;;;;;0.80;0.80;;;13.40;91.70;;;;;;5014509;28;20030;-72
2021/05/28 08:39:25;;;;;;;0.65;0.65;;;13.50;91.70;;;;;;5020384;28;20024;-72
2021/05/28 08:41:53;;;;;;;0.80;0.50;;;13.60;91.70;;;;;;5029455;28;20054;-72
2021/05/28 08:44:24;;;;;;;0.43;0.43;;;13.60;91.70;;;;;;4997496;28;20029;-72
2021/05/28 08:46:50;;;;;;;0.70;0.70;;;13.70;91.70;;;;;;5003422;28;20471;-72
2021/05/28 08:49:16;;;;;;;0.70;0.50;;;13.80;91.70;;;;;;5010030;28;20022;-69
2021/05/28 08:51:42;;;;;;;1.10;0.75;;;13.90;91.70;;;;;;5014041;28;20017;-71
2021/05/28 08:54:08;;;;;;;0.60;0.60;;;14.00;91.70;;;;;;5013968;28;20018;-71
2021/05/28 08:56:34;;;;;;;0.88;0.80;;;14.10;91.70;;;;;;5014043;28;20095;-71
2021/05/28 08:58:59;;;;;;;0.60;0.60;;;14.10;91.70;;;;;;5014020;28;20113;-71
2021/05/28 09:01:25;;;;;;;0.77;0.77;;;14.30;91.70;;;;;;5014262;28;20029;-71
2021/05/28 09:04:03;;;;;;;0.60;0.60;;;14.40;91.70;;;;;;5014251;28;20017;-72
2021/05/28 09:06:43;;;;;;;0.57;0.57;;;14.50;91.60;;;;;;5013656;28;20040;-72
2021/05/28 09:09:19;;;;;;;0.68;0.68;;;14.50;91.60;;;;;;5014007;28;20478;-72
2021/05/28 09:11:56;;;;;;;0.57;0.57;;;14.60;91.60;;;;;;5014117;28;20044;-71
2021/05/28 09:14:36;;;;;;;1.63;1.10;;;14.70;91.60;;;;;;5002771;28;20030;-72
2021/05/28 09:17:04;;;;;;;0.80;0.70;;;14.80;91.60;;;;;;4994439;28;20046;-71
2021/05/28 09:19:29;;;;;;;0.82;0.82;;;14.90;91.60;;;;;;4994388;28;20057;-72
2021/05/28 09:22:05;;;;;;;0.63;0.63;;;15.00;91.60;;;;;;4995656;28;20471;-71
2021/05/28 09:24:34;;;;;;;0.60;0.60;;;15.00;91.60;;;;;;4994047;28;20022;-72
2021/05/28 09:27:27;;;;;;;0.65;0.60;;;15.10;91.60;;;;;;4993342;28;20081;-72
2021/05/28 09:30:13;;;;;;;0.40;0.40;;;15.10;91.50;;;;;;4994245;28;20054;-71
2021/05/28 09:32:44;;;;;;;0.60;0.60;;;15.20;91.60;;;;;;4994172;28;20030;-72
2021/05/28 09:35:17;;;;;;;0.70;0.70;;;15.20;91.60;;;;;;4994063;28;20015;-72
2021/05/28 09:37:52;;;;;;;0.50;0.50;;;15.30;91.60;;;;;;4975987;28;20038;-72
2021/05/28 09:40:21;;;;;;;0.57;0.57;;;15.40;91.60;;;;;;4994072;28;20023;-72
2021/05/28 09:42:47;;;;;;;0.52;0.52;;;15.50;91.60;;;;;;4993896;28;20023;-72
2021/05/28 09:45:23;;;;;;;0.63;0.57;;;15.50;91.60;;;;;;4994262;28;20046;-72
2021/05/28 09:47:48;;;;;;;0.40;0.40;;;15.60;91.60;;;;;;4993916;28;20027;-72
2021/05/28 09:50:15;;;;;;;0.60;0.60;;;15.70;91.60;;;;;;4993509;28;20027;-72
2021/05/28 09:52:40;;;;;;;0.82;0.63;;;15.80;91.60;;;;;;5009532;28;20049;-72
2021/05/28 09:55:08;;;;;;;0.32;0.32;;;15.90;91.60;;;;;;4983427;28;20061;-72
2021/05/28 09:57:37;;;;;;;0.30;0.30;;;16.00;91.60;;;;;;5003508;28;20118;-71
2021/05/28 10:00:31;;;;;;;1.05;0.68;;;16.10;91.50;;;;;;5013300;28;20026;-71
2021/05/28 10:03:10;;;;;;;0.68;0.60;;;16.20;91.50;;;;;;5013586;28;20025;-71
2021/05/28 10:05:40;;;;;;;0.38;0.30;;;16.30;91.50;;;;;;5013016;28;20030;-72
2021/05/28 10:08:11;;;;;;;0.38;0.38;;;16.30;91.60;;;;;;5013403;28;20542;-71
2021/05/28 10:10:39;;;;;;;0.25;0.25;;;16.40;91.50;;;;;;5013202;28;20076;-71
2021/05/28 10:13:12;;;;;;;0.60;0.60;;;16.50;91.50;;;;;;5013365;28;20529;-72
2021/05/28 10:15:40;;;;;;;0.38;0.32;;;16.60;91.50;;;;;;5013357;28;20018;-72
2021/05/28 10:18:06;;;;;;;0.45;0.45;;;16.70;91.50;;;;;;5013172;28;20088;-72
2021/05/28 10:20:32;;;;;;;0.43;0.43;;;16.80;91.60;;;;;;5012895;28;20026;-72
2021/05/28 10:22:58;;;;;;;0.50;0.47;;;16.90;91.50;;;;;;5013144;28;20022;-72
2021/05/28 10:25:24;;;;;;;0.43;0.43;;;16.90;91.50;;;;;;5013247;28;20018;-72
2021/05/28 10:27:58;;;;;;;0.65;0.60;;;17.00;91.50;;;;;;5013245;28;20018;-72
2021/05/28 10:30:35;;;;;;;0.50;0.43;;;17.10;91.50;;;;;;5012795;28;20026;-72
2021/05/28 10:33:16;;;;;;;0.40;0.40;;;17.20;91.50;;;;;;5013259;28;20052;-71
2021/05/28 10:35:46;;;;;;;0.70;0.70;;;17.20;91.30;;;;;;5012527;28;20029;-72
2021/05/28 10:38:47;;;;;;;0.30;0.30;;;17.20;91.50;;;;;;5009902;28;20026;-72
2021/05/28 10:41:12;;;;;;;0.60;0.50;;;17.20;91.40;;;;;;5012941;28;20014;-72
2021/05/28 10:43:59;;;;;;;0.25;0.25;;;17.20;91.50;;;;;;5012692;28;20077;-72
2021/05/28 10:46:25;;;;;;;0.40;0.40;;;17.30;91.50;;;;;;5012864;28;20028;-72
2021/05/28 10:48:56;;;;;;;0.50;0.50;;;17.40;91.50;;;;;;5012523;28;20101;-72
2021/05/28 10:51:44;;;;;;;0.68;0.63;;;17.50;91.40;;;;;;5012831;28;20018;-72
2021/05/28 10:54:10;;;;;;;0.60;0.60;;;17.60;91.40;;;;;;5013741;28;20029;-72
2021/05/28 10:56:35;;;;;;;0.20;0.20;;;17.60;91.40;;;;;;5016304;28;20033;-72
2021/05/28 10:59:13;;;;;;;0.32;0.30;;;17.70;91.30;;;;;;5016499;28;20463;-72
2021/05/28 11:01:46;;;;;;;0.33;0.33;;;17.70;91.30;;;;;;5016606;28;20475;-72
2021/05/28 11:04:17;;;;;;;0.35;0.30;;;17.80;91.40;;;;;;5015993;28;20108;-72
2021/05/28 11:06:54;;;;;;;0.38;0.38;;;17.90;91.40;;;;;;5016632;28;20053;-72
2021/05/28 11:09:40;;;;;;;0.30;0.30;;;18.00;91.40;;;;;;5016271;28;20088;-72
2021/05/28 11:12:10;;;;;;;0.25;0.25;;;18.10;91.40;;;;;;5016198;28;20088;-72
2021/05/28 11:14:39;;;;;;;0.38;0.38;;;18.20;91.30;;;;;;5016297;28;20029;-72
2021/05/28 11:17:04;;;;;;;0.57;0.57;;;18.40;91.40;;;;;;4998180;28;20112;-72
2021/05/28 11:19:32;;;;;;;0.30;0.30;;;18.50;91.30;;;;;;5016076;28;20034;-72
2021/05/28 11:22:01;;;;;;;0.47;0.47;;;19.00;91.20;;;;;;5016175;28;20383;-72
2021/05/28 11:24:50;;;;;;;0.80;0.80;;;19.50;90.60;;;;;;5016021;28;20045;-72
2021/05/28 11:27:35;;;;;;;;;;;20.40;89.90;;;;;;5016643;28;20394;-72
2021/05/28 11:30:04;;;;;;;0.40;0.40;;;21.00;88.60;;;;;;5014041;28;19909;-72
2021/05/28 11:32:30;;;;;;;1.60;0.50;;;21.80;86.70;;;;;;5013978;28;20109;-72
2021/05/28 11:35:18;;;;;;;0.40;0.40;;;22.20;85.40;;;;;;5015689;28;20377;-72
2021/05/28 11:37:58;;;;;;;0.70;0.70;;;22.70;84.70;;;;;;5015790;28;20084;-73
2021/05/28 11:40:35;;;;;;;0.73;0.73;;;22.90;84.10;;;;;;5003370;28;20037;-72
2021/05/28 11:43:09;;;;;;;0.55;0.55;;;23.20;83.80;;;;;;4996021;28;20036;-72
2021/05/28 11:45:37;;;;;;;0.50;0.50;;;23.40;83.50;;;;;;4996098;28;20491;-73
2021/05/28 11:48:09;;;;;;;0.97;0.97;;;23.60;83.40;;;;;;4995742;28;20022;-72
2021/05/28 11:50:40;;;;;;;0.65;0.65;;;23.80;83.20;;;;;;4995976;28;20068;-72
2021/05/28 11:53:08;;;;;;;0.70;0.65;;;24.00;83.30;;;;;;4997055;28;20026;-72
2021/05/28 11:55:56;;;;;;;0.45;0.45;;;24.30;83.00;;;;;;4995942;28;20026;-73
2021/05/28 11:58:23;;;;;;;1.25;1.10;;;24.30;82.70;;;;;;4998711;28;20055;-72
2021/05/28 12:00:52;;;;;;;1.38;1.13;;;24.40;82.80;;;;;;5014953;28;20481;-72
2021/05/28 12:03:18;;;;;;;1.00;0.90;;;24.40;82.70;;;;;;5015559;28;20096;-72
2021/05/28 12:05:46;;;;;;;0.90;0.90;;;24.20;83.40;;;;;;5014080;28;20022;-72
2021/05/28 12:08:11;;;;;;;0.85;0.85;;;24.00;83.40;;;;;;5015113;28;20025;-72
2021/05/28 12:10:42;;;;;;;0.90;0.90;;;24.00;84.40;;;;;;5015207;28;20102;-73
2021/05/28 12:13:10;;;;;;;0.77;0.77;;;23.90;83.90;;;;;;5013795;28;20026;-70
2021/05/28 12:15:43;;;;;;;1.07;0.97;;;23.80;83.90;;;;;;5019764;28;20022;-70
2021/05/28 12:18:16;;;;;;;1.00;0.70;;;23.80;84.00;;;;;;5001701;28;20301;-70
2021/05/28 12:20:43;;;;;;;1.02;0.90;;;23.70;84.20;;;;;;4995405;28;20027;-70
2021/05/28 12:23:13;;;;;;;0.60;0.60;;;23.80;84.40;;;;;;4995156;28;20031;-70
2021/05/28 12:25:57;;;;;;;0.73;0.73;;;24.00;84.20;;;;;;4996059;28;20033;-70
2021/05/28 12:28:28;;;;;;;0.65;0.65;;;24.20;83.90;;;;;;5009897;28;20030;-72
2021/05/28 12:30:59;;;;;;;1.02;0.80;;;24.50;83.50;;;;;;4995834;28;20030;-73
2021/05/28 12:33:31;;;;;;;0.68;0.68;;;24.70;82.40;;;;;;5012328;28;20060;-72
2021/05/28 12:36:05;;;;;;;1.20;0.70;;;24.80;81.80;;;;;;5014709;28;20056;-72
2021/05/28 12:38:39;;;;;;;0.45;0.45;;;24.90;81.80;;;;;;5012859;28;20045;-72
2021/05/28 12:41:07;;;;;;;0.60;0.50;;;25.00;81.70;;;;;;4996514;28;20097;-72
2021/05/28 12:43:34;;;;;;;0.55;0.55;;;25.20;81.40;;;;;;5004842;28;20018;-72
2021/05/28 12:46:00;;;;;;;0.73;0.50;;;25.40;80.90;;;;;;5003342;28;20022;-72
2021/05/28 12:48:45;;;;;;;0.70;0.70;;;25.60;80.70;;;;;;5014232;28;20080;-72
2021/05/28 12:51:13;;;;;;;0.55;0.52;;;25.80;80.20;;;;;;4997036;28;20030;-72
2021/05/28 12:53:40;;;;;;;0.63;0.63;;;26.00;79.70;;;;;;4994598;28;20068;-72
2021/05/28 12:56:07;;;;;;;0.50;0.50;;;26.30;79.20;;;;;;4994557;28;20041;-72